CheckWX is a tool to help pilots better visualize weather data.  It is not intended as a substitute for an official pre-flight weather briefing.

13:11:54 UTC

KTYQ METAR
Indianapolis Executive Airport
Indianapolis, Indiana, USA
Current

17 mins ago

KTYQ 191255Z AUTO 00000KT 10SM CLR 15/15 A3011 RMK AO2 T01540152
Observed
Sep-19 @ 12:55 UTC
Visibility
10 SM
Flight Rules
VFR
Cloud Levels
  • Clear skies
Temperature
15°C / 59°F
Dewpoint
15°C / 59°F
Humidity
100%
Altimeter
30.11" Hg
Pressure
1019.62 hPa
Previous

37 mins ago

KTYQ 191235Z AUTO 00000KT 10SM CLR 14/14 A3011 RMK AO2 T01350135
Observed
Sep-19 @ 12:35 UTC
Visibility
10 SM
Flight Rules
VFR
Cloud Levels
  • Clear skies
Temperature
14°C / 57°F
Dewpoint
14°C / 57°F
Humidity
100%
Altimeter
30.11" Hg
Pressure
1019.62 hPa
Previous

57 mins ago

KTYQ 191215Z AUTO 00000KT 10SM CLR 12/12 A3011 RMK AO2 T01190119
Observed
Sep-19 @ 12:15 UTC
Visibility
10 SM
Flight Rules
VFR
Cloud Levels
  • Clear skies
Temperature
12°C / 54°F
Dewpoint
12°C / 54°F
Humidity
100%
Altimeter
30.11" Hg
Pressure
1019.62 hPa